Morro Bay, CA

11:35 PM PDT on September 15, 2014 (GMT -0700)
Bonita and Hwy 1 | Change Station
CLOSE
Current Station
Personal Weather Station
Location: Morro Bay, CA
Elevation: 45 ft
Nearby Weather Stations

Elev 45 ft 35.39 °N, 120.86 °W | Updated 2 seconds ago

Clear
Clear
61.9 °F
Feels Like 61.9 °F
N
5.0
Wind Variable Wind from SE
Gusts 7.0 mph

Today
High -- | Low -- °F
--% Chance of Precip.
Yesterday
High -- | Low -- °F
Precip. -- in
6:46 AM 7:10 PM
Waning Gibbous, 48% visible
Pressure 29.90 in
Visibility 10.0 miles
Clouds Clear
Dew Point 57 °F
Humidity 81%
Rainfall 0.00 in
Snow Depth 1 in , 0 in , 0 in
UV 0 out of 12
Pollen 7.70 out of 12
Air Quality Not available.
Flu Activity Not available.
METAR KSBP 160556Z 31006KT 10SM CLR 16/13 A2991 RMK AO2 SLP125 T01610128 10256 20161 51009

More Conditions Fewer Conditions

Pressure 29.90 in
Visibility 10.0 miles
Clouds Clear
Dew Point 57 °F
Humidity 81%
Rainfall 0.00 in
Snow Depth 1 in , 0 in , 0 in
UV 0 out of 12
Pollen 7.70 out of 12
Air Quality Not available.
Flu Activity Not available.
METAR KSBP 160556Z 31006KT 10SM CLR 16/13 A2991 RMK AO2 SLP125 T01610128 10256 20161 51009

More Conditions Fewer Conditions

10-Day Weather Forecast

Almanac

Astronomy

Sep. 15, 2014 Rise Set
Actual Time 6:46 AM PDT 7:10 PM PDT
Civil Twilight 6:20 AM PDT 7:35 PM PDT
Nautical Twilight 5:50 AM PDT 8:05 PM PDT
Astronomical Twilight 5:20 AM PDT 8:35 PM PDT
Moon No Moon Rise 1:38 PM PDT (9/15)
Length of Visible Light 13h 15m
Length of Day
12h 24m
Tomorrow will be 2m 11s shorter.
Waning Gibbous, 48% of the Moon is Illuminated
Sep 16
Waning Gibbous
Sep 24
New
Oct 1
First Quarter
Oct 8
Full
Oct 15
Last Quarter

Community

WunderPhotos

Upload Photos

1,753,699 photos uploaded!

Nearby

Snow Depth

Station Depth Elevation
Adin Mountain 1 in 6200 ft
Echo Peak 0 in 7800 ft
Monitor Pass 0 in 8350 ft
Leavitt Meadows 0 in 7200 ft
Leavitt Lake 1 in 9400 ft

Earthquake Activity

City Distance Mag. Time & Date
No recent earthquake activity has been reported nearby.
Minimum magnitude displayed is 2.5.

Coastal Water Temperatures

Place Temperature
No Stations Reporting

Nearby Weather Stations